Time;durP1;ratioP1;P1;durP2;ratioP2;P2;SDS_P1;SDS_P2;PMS_P1;PMS_P2;Temp;Humidity;BMP_temperature;BMP_pressure;BME280_temperature;BME280_humidity;BME280_pressure;Samples;Min_cycle;Max_cycle;Signal;HPM_P1;HPM_P2
2023/09/06 00:02:29;;;;;;;8.23;5.97;;;;;;;;;;5001957;28;20045;-79
2023/09/06 00:04:55;;;;;;;8.75;5.85;;;;;;;;;;5009929;28;20041;-81
2023/09/06 00:07:23;;;;;;;8.60;5.20;;;;;;;;;;5001897;28;20026;-79
2023/09/06 00:09:49;;;;;;;9.98;6.32;;;;;;;;;;5001668;28;20049;-79
2023/09/06 00:12:18;;;;;;;8.27;5.65;;;;;;;;;;5001719;28;20022;-81
2023/09/06 00:14:44;;;;;;;7.95;5.40;;;;;;;;;;5001357;28;20026;-81
2023/09/06 00:17:10;;;;;;;9.43;5.65;;;;;;;;;;5000717;28;20034;-82
2023/09/06 00:19:36;;;;;;;9.15;6.45;;;;;;;;;;5001640;28;20033;-81
2023/09/06 00:22:02;;;;;;;10.32;5.78;;;;;;;;;;5001864;28;20112;-79
2023/09/06 00:24:31;;;;;;;8.57;5.95;;;;;;;;;;5002741;28;20019;-80
2023/09/06 00:26:58;;;;;;;9.00;6.18;;;;;;;;;;5001225;28;20091;-80
2023/09/06 00:29:24;;;;;;;7.88;6.22;;;;;;;;;;5001230;28;20387;-80
2023/09/06 00:31:50;;;;;;;8.10;6.00;;;;;;;;;;5001452;28;20086;-83
2023/09/06 00:34:16;;;;;;;8.20;5.97;;;;;;;;;;5000495;28;20057;-82
2023/09/06 00:36:42;;;;;;;9.82;6.63;;;;;;;;;;5001441;28;20150;-82
2023/09/06 00:39:09;;;;;;;10.45;7.07;;;;;;;;;;5000560;28;20030;-81
2023/09/06 00:41:40;;;;;;;9.07;6.13;;;;;;;;;;5000268;28;20027;-80
2023/09/06 00:44:08;;;;;;;16.58;6.70;;;;;;;;;;5000927;28;20021;-81
2023/09/06 00:46:34;;;;;;;8.63;6.70;;;;;;;;;;5001179;28;20015;-80
2023/09/06 00:49:02;;;;;;;10.63;6.38;;;;;;;;;;5000890;28;20102;-79
2023/09/06 00:51:29;;;;;;;7.28;6.07;;;;;;;;;;5001168;28;20029;-80
2023/09/06 00:54:00;;;;;;;8.70;6.80;;;;;;;;;;5001012;28;21051;-79
2023/09/06 00:56:26;;;;;;;11.27;6.82;;;;;;;;;;5002076;28;20049;-79
2023/09/06 00:58:52;;;;;;;11.38;6.65;;;;;;;;;;5000768;28;20038;-83
2023/09/06 01:01:19;;;;;;;10.38;6.18;;;;;;;;;;5000223;28;20827;-79
2023/09/06 01:03:45;;;;;;;9.48;6.28;;;;;;;;;;5000265;28;20022;-80
2023/09/06 01:06:14;;;;;;;8.27;6.40;;;;;;;;;;5000317;28;20037;-82
2023/09/06 01:08:55;;;;;;;9.60;5.78;;;;;;;;;;5001561;28;20018;-80
2023/09/06 01:11:22;;;;;;;7.78;6.00;;;;;;;;;;5000136;28;20022;-81
2023/09/06 01:13:52;;;;;;;8.27;5.65;;;;;;;;;;5001622;28;20093;-81
2023/09/06 01:16:24;;;;;;;7.93;5.55;;;;;;;;;;5000960;28;20038;-83
2023/09/06 01:18:51;;;;;;;7.85;5.57;;;;;;;;;;5000322;28;20085;-81
2023/09/06 01:21:18;;;;;;;8.63;5.50;;;;;;;;;;4999531;28;20038;-81
2023/09/06 01:23:44;;;;;;;9.45;6.05;;;;;;;;;;5007737;28;20387;-81
2023/09/06 01:26:10;;;;;;;9.38;5.25;;;;;;;;;;5000398;28;20109;-81
2023/09/06 01:28:36;;;;;;;8.02;5.47;;;;;;;;;;5002026;28;20037;-81
2023/09/06 01:31:02;;;;;;;12.23;5.50;;;;;;;;;;4999206;28;20070;-81
2023/09/06 01:33:29;;;;;;;6.90;5.22;;;;;;;;;;5007347;28;20026;-81
2023/09/06 01:35:55;;;;;;;7.93;5.43;;;;;;;;;;4999144;28;20050;-75
2023/09/06 01:38:21;;;;;;;7.72;5.57;;;;;;;;;;5000410;28;20062;-75
2023/09/06 01:40:47;;;;;;;5.68;5.07;;;;;;;;;;4999300;28;20061;-76
2023/09/06 01:43:13;;;;;;;12.27;5.35;;;;;;;;;;4999722;28;20062;-77
2023/09/06 01:45:44;;;;;;;6.40;5.03;;;;;;;;;;5001648;28;20022;-74
2023/09/06 01:48:10;;;;;;;6.80;5.20;;;;;;;;;;5005910;28;20054;-74
2023/09/06 01:50:36;;;;;;;8.43;5.28;;;;;;;;;;5000506;28;20787;-75
2023/09/06 01:53:02;;;;;;;7.00;5.20;;;;;;;;;;5002334;28;20019;-75
2023/09/06 01:55:28;;;;;;;8.27;4.95;;;;;;;;;;5001441;28;20085;-76
2023/09/06 01:57:54;;;;;;;7.88;4.95;;;;;;;;;;4998502;28;20475;-75
2023/09/06 02:00:31;;;;;;;7.05;4.70;;;;;;;;;;5001861;28;20018;-74
2023/09/06 02:02:57;;;;;;;7.10;4.97;;;;;;;;;;5000807;28;20042;-75
2023/09/06 02:05:23;;;;;;;10.15;4.97;;;;;;;;;;5001828;28;20050;-76
2023/09/06 02:07:50;;;;;;;8.70;5.05;;;;;;;;;;5000498;28;20041;-74
2023/09/06 02:10:16;;;;;;;10.77;4.90;;;;;;;;;;5001557;28;20022;-74
2023/09/06 02:12:42;;;;;;;7.97;4.93;;;;;;;;;;4999771;28;20024;-78
2023/09/06 02:15:08;;;;;;;7.90;4.95;;;;;;;;;;5003240;28;20682;-74
2023/09/06 02:17:35;;;;;;;7.88;5.00;;;;;;;;;;5003008;28;20022;-76
2023/09/06 02:20:12;;;;;;;5.82;4.72;;;;;;;;;;5001661;28;20022;-76
2023/09/06 02:22:39;;;;;;;6.60;5.47;;;;;;;;;;5003661;28;20034;-74
2023/09/06 02:25:06;;;;;;;6.30;5.13;;;;;;;;;;5005267;28;20030;-76
2023/09/06 02:27:33;;;;;;;9.10;5.60;;;;;;;;;;5004357;28;20027;-75
2023/09/06 02:29:59;;;;;;;9.60;5.38;;;;;;;;;;5003218;28;20060;-76
2023/09/06 02:32:26;;;;;;;10.18;4.93;;;;;;;;;;5005153;28;20121;-75
2023/09/06 02:34:52;;;;;;;9.88;5.90;;;;;;;;;;5004994;28;20114;-74
2023/09/06 02:37:18;;;;;;;7.75;6.22;;;;;;;;;;5004856;28;20086;-75
2023/09/06 02:39:44;;;;;;;7.43;5.13;;;;;;;;;;5005161;28;20014;-74
2023/09/06 02:42:10;;;;;;;7.40;5.72;;;;;;;;;;5004878;28;20502;-75
2023/09/06 02:44:36;;;;;;;7.88;5.97;;;;;;;;;;5003734;28;20046;-77
2023/09/06 02:47:03;;;;;;;8.32;5.60;;;;;;;;;;5005194;28;20081;-74
2023/09/06 02:49:29;;;;;;;8.82;6.03;;;;;;;;;;5004638;28;20023;-75
2023/09/06 02:51:56;;;;;;;9.52;5.60;;;;;;;;;;5003525;28;20217;-73
2023/09/06 02:54:22;;;;;;;8.02;5.50;;;;;;;;;;5005146;28;20380;-73
2023/09/06 02:56:48;;;;;;;10.18;5.85;;;;;;;;;;5003386;28;20082;-75
2023/09/06 02:59:15;;;;;;;12.52;6.05;;;;;;;;;;5004387;28;20026;-75
2023/09/06 03:01:44;;;;;;;8.68;6.32;;;;;;;;;;5004328;28;20036;-75
2023/09/06 03:04:13;;;;;;;9.13;6.38;;;;;;;;;;5004435;28;20014;-75
2023/09/06 03:06:39;;;;;;;10.35;6.50;;;;;;;;;;5004522;28;20018;-75
2023/09/06 03:09:06;;;;;;;10.20;7.00;;;;;;;;;;5003418;28;20026;-74
2023/09/06 03:11:32;;;;;;;11.45;6.95;;;;;;;;;;5003327;28;20487;-75
2023/09/06 03:13:58;;;;;;;9.05;6.65;;;;;;;;;;5003263;28;20029;-73
2023/09/06 03:16:24;;;;;;;10.13;6.80;;;;;;;;;;5004696;28;20026;-75
2023/09/06 03:18:52;;;;;;;10.27;7.28;;;;;;;;;;5004623;28;20053;-73
2023/09/06 03:21:18;;;;;;;9.25;5.72;;;;;;;;;;5003843;28;20034;-73
2023/09/06 03:23:46;;;;;;;12.35;6.38;;;;;;;;;;5003122;28;20541;-74
2023/09/06 03:26:15;;;;;;;10.15;6.80;;;;;;;;;;5003109;28;20030;-74
2023/09/06 03:28:41;;;;;;;11.13;6.25;;;;;;;;;;5004259;28;20018;-75
2023/09/06 03:31:12;;;;;;;11.77;6.75;;;;;;;;;;5003159;28;20563;-75
2023/09/06 03:33:41;;;;;;;9.70;6.75;;;;;;;;;;5004151;28;20026;-73
2023/09/06 03:36:09;;;;;;;9.88;6.65;;;;;;;;;;5003498;28;20027;-74
2023/09/06 03:38:36;;;;;;;10.00;6.70;;;;;;;;;;5003775;28;20110;-74
2023/09/06 03:41:03;;;;;;;12.07;6.70;;;;;;;;;;5003728;28;20463;-73
2023/09/06 03:43:30;;;;;;;8.63;6.85;;;;;;;;;;5004261;28;20014;-74
2023/09/06 03:45:58;;;;;;;10.07;7.68;;;;;;;;;;5004283;28;20018;-73
2023/09/06 03:48:27;;;;;;;9.45;7.03;;;;;;;;;;5001941;28;20023;-74
2023/09/06 03:50:56;;;;;;;10.10;7.15;;;;;;;;;;5003810;28;20015;-73
2023/09/06 03:53:25;;;;;;;10.35;7.10;;;;;;;;;;5003797;28;20022;-75
2023/09/06 03:55:52;;;;;;;12.75;7.05;;;;;;;;;;5003508;28;20030;-74
2023/09/06 03:58:18;;;;;;;9.80;7.32;;;;;;;;;;5002462;28;20053;-73
2023/09/06 04:00:44;;;;;;;10.43;7.43;;;;;;;;;;5003587;28;20034;-74
2023/09/06 04:03:14;;;;;;;11.00;7.72;;;;;;;;;;5003255;28;20022;-74
2023/09/06 04:05:40;;;;;;;9.40;7.25;;;;;;;;;;5002729;28;20015;-75
2023/09/06 04:08:09;;;;;;;8.88;7.72;;;;;;;;;;5003138;28;20133;-75
2023/09/06 04:10:36;;;;;;;8.73;7.32;;;;;;;;;;5003457;28;20060;-74
2023/09/06 04:13:02;;;;;;;10.77;7.72;;;;;;;;;;5001932;28;20022;-75
2023/09/06 04:15:29;;;;;;;10.25;7.72;;;;;;;;;;5003514;28;20021;-74
2023/09/06 04:17:59;;;;;;;11.57;8.00;;;;;;;;;;5003437;28;20019;-74
2023/09/06 04:20:27;;;;;;;10.73;7.78;;;;;;;;;;5003072;28;20022;-74
2023/09/06 04:22:54;;;;;;;10.95;8.10;;;;;;;;;;5001279;28;20034;-73
2023/09/06 04:25:22;;;;;;;12.52;8.32;;;;;;;;;;5003480;28;20049;-74
2023/09/06 04:27:49;;;;;;;11.20;8.07;;;;;;;;;;5003303;28;20111;-73
2023/09/06 04:30:15;;;;;;;11.30;7.90;;;;;;;;;;5003250;28;20026;-74
2023/09/06 04:32:42;;;;;;;10.73;8.07;;;;;;;;;;5003217;28;20116;-74
2023/09/06 04:35:08;;;;;;;12.07;8.70;;;;;;;;;;4996171;28;20049;-75
2023/09/06 04:37:55;;;;;;;10.07;8.30;;;;;;;;;;4999643;28;20105;-77
2023/09/06 04:40:21;;;;;;;11.93;8.00;;;;;;;;;;5001432;28;20030;-75
2023/09/06 04:42:47;;;;;;;10.93;8.25;;;;;;;;;;5000447;28;20097;-75
2023/09/06 04:45:13;;;;;;;11.23;8.55;;;;;;;;;;5001322;28;20094;-75
2023/09/06 04:47:39;;;;;;;12.38;8.98;;;;;;;;;;5001524;28;20022;-75
2023/09/06 04:50:06;;;;;;;9.63;8.10;;;;;;;;;;5001487;28;20018;-75
2023/09/06 04:52:37;;;;;;;13.23;9.07;;;;;;;;;;5000035;28;20026;-75
2023/09/06 04:55:06;;;;;;;13.20;8.50;;;;;;;;;;5000509;28;20506;-76
2023/09/06 04:57:33;;;;;;;15.60;8.45;;;;;;;;;;5000635;28;20054;-75
2023/09/06 04:59:59;;;;;;;12.82;8.90;;;;;;;;;;5002150;28;20030;-75
2023/09/06 05:02:25;;;;;;;11.57;8.32;;;;;;;;;;5000659;28;20038;-76
2023/09/06 05:04:51;;;;;;;17.08;8.57;;;;;;;;;;5000363;28;20089;-75
2023/09/06 05:07:17;;;;;;;13.10;8.38;;;;;;;;;;5001858;28;20014;-75
2023/09/06 05:09:43;;;;;;;13.93;8.57;;;;;;;;;;5001872;28;20479;-75
2023/09/06 05:12:09;;;;;;;10.45;8.27;;;;;;;;;;5001106;28;20029;-75
2023/09/06 05:14:35;;;;;;;12.98;8.30;;;;;;;;;;5000555;28;20086;-75
2023/09/06 05:17:01;;;;;;;14.15;7.80;;;;;;;;;;5001904;28;20022;-75
2023/09/06 05:19:27;;;;;;;16.55;8.32;;;26.80;99.90;;;;;;5000077;28;20019;-74
2023/09/06 05:21:54;;;;;;;12.50;8.40;;;17.80;99.90;;;;;;5001235;28;20042;-75
2023/09/06 05:24:20;;;;;;;21.45;8.88;;;17.40;99.90;;;;;;5001571;28;20030;-75
2023/09/06 05:26:46;;;;;;;16.88;8.45;;;17.40;99.90;;;;;;5001319;28;20030;-75
2023/09/06 05:29:14;;;;;;;20.08;8.50;;;17.40;99.90;;;;;;5001559;28;20080;-75
2023/09/06 05:31:40;;;;;;;19.40;8.65;;;17.40;99.90;;;;;;5001238;28;20031;-75
2023/09/06 05:34:05;;;;;;;15.93;8.57;;;17.40;99.90;;;;;;4961314;28;1092937;-75
2023/09/06 05:36:31;;;;;;;19.58;9.00;;;17.50;99.90;;;;;;5000768;28;20038;-75
2023/09/06 05:38:57;;;;;;;17.95;8.68;;;17.50;99.90;;;;;;5000955;28;20030;-75
2023/09/06 05:41:23;;;;;;;16.15;8.18;;;17.50;99.90;;;;;;5001718;28;20121;-75
2023/09/06 05:43:49;;;;;;;21.92;9.13;;;17.50;99.90;;;;;;5000687;28;20019;-75
2023/09/06 05:46:14;;;;;;;15.20;7.68;;;17.60;99.90;;;;;;5002040;28;20030;-74
2023/09/06 05:48:40;;;;;;;21.13;8.50;;;17.60;99.90;;;;;;5002033;28;20018;-75
2023/09/06 05:51:06;;;;;;;13.60;7.82;;;17.70;99.90;;;;;;5006200;28;20475;-75
2023/09/06 05:53:31;;;;;;;14.50;8.73;;;17.70;99.90;;;;;;5004675;28;20045;-76
2023/09/06 05:55:57;;;;;;;19.45;8.32;;;17.70;99.90;;;;;;5005511;28;20018;-75
2023/09/06 05:58:24;;;;;;;12.18;8.13;;;17.80;99.90;;;;;;5005758;28;20810;-75
2023/09/06 06:00:53;;;;;;;13.90;7.65;;;17.80;99.90;;;;;;5005683;28;20018;-76
2023/09/06 06:03:19;;;;;;;12.70;7.55;;;17.90;99.90;;;;;;5005162;28;20019;-76
2023/09/06 06:05:45;;;;;;;12.13;7.80;;;17.90;99.90;;;;;;5004448;28;20116;-77
2023/09/06 06:08:10;;;;;;;12.30;7.80;;;18.00;99.90;;;;;;5004237;28;20026;-76
2023/09/06 06:10:36;;;;;;;14.90;7.82;;;18.00;99.90;;;;;;5005673;28;20689;-76
2023/09/06 06:13:03;;;;;;;19.00;7.53;;;18.00;99.90;;;;;;5005839;28;20041;-75
2023/09/06 06:15:29;;;;;;;12.50;7.30;;;18.10;99.90;;;;;;5004287;28;20030;-76
2023/09/06 06:17:54;;;;;;;10.98;7.63;;;18.10;99.90;;;;;;5004250;28;20057;-76
2023/09/06 06:20:21;;;;;;;10.23;7.20;;;18.10;99.90;;;;;;5005597;28;20110;-76
2023/09/06 06:22:47;;;;;;;9.77;7.60;;;18.10;99.90;;;;;;5003646;28;20472;-76
2023/09/06 06:25:12;;;;;;;9.50;7.20;;;18.20;99.90;;;;;;5005305;28;20065;-76
2023/09/06 06:27:38;;;;;;;12.02;7.78;;;18.20;99.90;;;;;;5005301;28;20034;-75
2023/09/06 06:30:07;;;;;;;10.23;7.18;;;18.20;99.90;;;;;;5003854;28;20022;-76
2023/09/06 06:32:34;;;;;;;9.27;7.40;;;18.30;99.90;;;;;;5003762;28;20038;-76
2023/09/06 06:35:06;;;;;;;9.13;7.05;;;18.30;99.90;;;;;;5004721;28;20045;-76
2023/09/06 06:37:32;;;;;;;9.68;7.18;;;18.30;99.90;;;;;;5003732;28;20475;-76
2023/09/06 06:40:01;;;;;;;9.93;7.70;;;18.40;99.90;;;;;;5005047;28;20514;-75
2023/09/06 06:42:27;;;;;;;8.68;7.22;;;18.40;99.90;;;;;;5003773;28;20046;-78
2023/09/06 06:44:52;;;;;;;12.52;7.75;;;18.50;99.90;;;;;;5003559;28;20062;-76
2023/09/06 06:47:18;;;;;;;10.90;7.22;;;18.50;99.90;;;;;;5005345;28;20038;-77
2023/09/06 06:49:43;;;;;;;9.88;6.57;;;18.50;99.90;;;;;;5004552;28;20022;-76
2023/09/06 06:52:09;;;;;;;12.52;7.28;;;18.60;99.90;;;;;;5003451;28;20033;-76
2023/09/06 06:54:39;;;;;;;8.85;6.95;;;18.60;99.90;;;;;;5003191;28;20082;-78
2023/09/06 06:57:05;;;;;;;10.05;6.38;;;18.70;99.90;;;;;;5004554;28;20459;-77
2023/09/06 06:59:30;;;;;;;10.80;7.00;;;18.70;99.90;;;;;;5002970;28;20034;-77
2023/09/06 07:01:56;;;;;;;14.82;7.45;;;18.80;99.90;;;;;;5005169;28;20062;-76
2023/09/06 07:04:22;;;;;;;9.88;7.30;;;18.90;99.90;;;;;;5003224;28;20033;-75
2023/09/06 07:06:47;;;;;;;10.18;8.02;;;18.90;99.90;;;;;;5004519;28;20034;-76
2023/09/06 07:09:13;;;;;;;9.55;7.20;;;18.90;99.90;;;;;;5003176;28;20029;-76
2023/09/06 07:11:38;;;;;;;13.88;7.30;;;19.00;99.90;;;;;;5004179;28;20050;-76
2023/09/06 07:14:04;;;;;;;10.95;8.02;;;19.10;99.90;;;;;;5002792;28;20068;-77
2023/09/06 07:16:31;;;;;;;11.90;7.10;;;19.20;99.90;;;;;;5004760;28;20022;-77
2023/09/06 07:18:58;;;;;;;11.65;7.60;;;19.30;99.90;;;;;;5002910;28;20033;-75
2023/09/06 07:21:25;;;;;;;12.25;7.38;;;19.40;99.90;;;;;;5003084;28;20034;-76
2023/09/06 07:23:51;;;;;;;11.15;7.65;;;19.40;99.90;;;;;;5003916;28;20018;-76
2023/09/06 07:26:16;;;;;;;13.05;7.43;;;19.50;99.90;;;;;;5004084;28;20038;-76
2023/09/06 07:28:44;;;;;;;11.70;7.13;;;19.60;99.90;;;;;;5002971;28;20050;-76
2023/09/06 07:31:10;;;;;;;17.83;8.32;;;19.70;99.90;;;;;;5004062;28;20156;-75
2023/09/06 07:33:36;;;;;;;13.35;7.05;;;19.70;99.90;;;;;;5003725;28;20014;-75
2023/09/06 07:36:02;;;;;;;8.68;6.80;;;19.80;99.90;;;;;;5004061;28;20054;-77
2023/09/06 07:38:28;;;;;;;10.40;6.60;;;19.90;99.90;;;;;;5003416;28;20080;-77
2023/09/06 07:40:58;;;;;;;8.60;6.40;;;20.10;99.90;;;;;;5004029;28;20022;-75
2023/09/06 07:43:25;;;;;;;8.82;6.32;;;20.10;99.90;;;;;;5003064;28;20038;-76
2023/09/06 07:45:51;;;;;;;11.07;6.22;;;20.20;99.90;;;;;;5003287;28;20018;-75
2023/09/06 07:48:17;;;;;;;9.95;6.50;;;20.30;99.90;;;;;;5002301;28;20033;-76
2023/09/06 07:50:42;;;;;;;8.18;6.18;;;20.30;99.90;;;;;;5002351;28;20462;-78
2023/09/06 07:53:08;;;;;;;10.02;5.78;;;20.50;99.90;;;;;;5002299;28;20018;-76
2023/09/06 07:55:34;;;;;;;10.45;6.47;;;20.50;99.90;;;;;;5003700;28;20022;-76
2023/09/06 07:57:59;;;;;;;11.10;6.07;;;20.50;99.90;;;;;;5003683;28;20058;-76
2023/09/06 08:00:26;;;;;;;8.15;6.47;;;20.70;99.90;;;;;;5003197;28;20472;-76
2023/09/06 08:02:51;;;;;;;9.35;5.95;;;20.70;99.90;;;;;;5003671;28;20050;-76
2023/09/06 08:05:17;;;;;;;7.22;5.78;;;20.80;99.90;;;;;;5002648;28;20031;-76
2023/09/06 08:07:43;;;;;;;10.30;5.97;;;20.90;99.90;;;;;;5003468;28;20038;-75
2023/09/06 08:10:09;;;;;;;9.20;6.20;;;21.00;99.90;;;;;;5003548;28;20026;-78
2023/09/06 08:12:36;;;;;;;7.47;5.90;;;21.10;99.90;;;;;;5001445;28;20029;-76
2023/09/06 08:15:03;;;;;;;7.63;5.05;;;21.20;99.90;;;;;;5002010;28;20117;-75
2023/09/06 08:17:29;;;;;;;7.88;5.22;;;21.30;99.90;;;;;;5003616;28;20034;-76
2023/09/06 08:19:55;;;;;;;4.82;4.30;;;21.50;99.90;;;;;;5001617;28;20049;-75
2023/09/06 08:22:21;;;;;;;10.55;5.70;;;21.60;99.90;;;;;;5003054;28;20038;-76
2023/09/06 08:24:46;;;;;;;9.73;5.72;;;21.70;99.90;;;;;;5003323;28;20042;-76
2023/09/06 08:27:12;;;;;;;9.32;5.15;;;21.80;99.90;;;;;;5001470;28;20018;-77
2023/09/06 08:29:38;;;;;;;9.32;5.05;;;21.90;99.90;;;;;;5003105;28;20069;-76
2023/09/06 08:32:04;;;;;;;8.48;5.10;;;21.90;99.90;;;;;;5003061;28;20088;-77
2023/09/06 08:34:29;;;;;;;9.73;5.07;;;22.00;99.90;;;;;;5001612;28;20509;-76
2023/09/06 08:36:56;;;;;;;10.85;5.25;;;22.10;99.90;;;;;;5001744;28;20039;-76
2023/09/06 08:39:22;;;;;;;5.97;4.28;;;22.20;99.90;;;;;;5000893;28;20502;-76
2023/09/06 08:41:49;;;;;;;7.80;4.43;;;22.30;99.90;;;;;;5001496;28;20046;-76
2023/09/06 08:44:18;;;;;;;7.82;3.55;;;22.40;99.90;;;;;;5001154;28;20026;-76
2023/09/06 08:46:46;;;;;;;8.00;4.40;;;22.50;99.90;;;;;;5002474;28;20069;-76
2023/09/06 08:49:12;;;;;;;7.22;4.28;;;22.60;99.90;;;;;;5002313;28;20057;-76
2023/09/06 08:51:39;;;;;;;8.80;4.28;;;22.70;99.90;;;;;;5001393;28;20019;-76
2023/09/06 08:54:05;;;;;;;5.68;3.90;;;22.80;99.90;;;;;;5002514;28;20022;-76
2023/09/06 08:56:32;;;;;;;11.70;3.75;;;23.00;99.90;;;;;;5001300;28;20107;-76
2023/09/06 08:58:59;;;;;;;7.43;3.05;;;23.10;99.90;;;;;;5001215;28;20082;-75
2023/09/06 09:01:25;;;;;;;10.40;4.22;;;23.20;99.90;;;;;;5000970;28;20046;-76
2023/09/06 09:03:51;;;;;;;6.20;3.58;;;23.30;99.90;;;;;;5001130;28;20128;-75
2023/09/06 09:06:17;;;;;;;6.60;3.42;;;23.40;99.90;;;;;;5001756;28;20037;-75
2023/09/06 09:08:42;;;;;;;4.10;2.58;;;23.50;99.90;;;;;;5001238;28;20030;-75
2023/09/06 09:11:13;;;;;;;5.55;2.75;;;23.60;99.90;;;;;;5002546;28;20022;-76
2023/09/06 09:13:39;;;;;;;4.75;3.42;;;23.70;99.90;;;;;;5001767;28;20479;-76
2023/09/06 09:16:13;;;;;;;4.97;2.92;;;23.80;99.90;;;;;;5002105;28;20029;-75
2023/09/06 09:18:42;;;;;;;4.53;2.85;;;23.90;99.90;;;;;;5000917;28;20030;-76
2023/09/06 09:21:10;;;;;;;3.53;2.33;;;24.00;99.90;;;;;;5000711;28;20051;-75
2023/09/06 09:24:05;;;;;;;6.18;2.78;;;24.10;99.90;;;;;;5000311;28;20038;-78
2023/09/06 09:26:32;;;;;;;5.68;2.90;;;24.20;99.90;;;;;;4992603;28;20047;-75
2023/09/06 09:29:03;;;;;;;6.32;2.78;;;24.30;99.90;;;;;;5000842;28;20022;-75
2023/09/06 09:31:30;;;;;;;9.05;3.10;;;24.30;99.90;;;;;;5001406;28;20022;-77
2023/09/06 09:33:56;;;;;;;6.05;2.60;;;24.40;99.90;;;;;;5001827;28;20034;-76
2023/09/06 09:36:22;;;;;;;3.63;2.30;;;24.50;99.90;;;;;;5002195;28;20038;-74
2023/09/06 09:38:49;;;;;;;2.67;2.28;;;24.60;99.90;;;;;;5000858;28;20022;-76
2023/09/06 09:41:15;;;;;;;3.67;2.45;;;24.70;99.90;;;;;;5001324;28;20038;-76
2023/09/06 09:43:41;;;;;;;6.15;2.70;;;24.80;99.90;;;;;;5002296;28;20044;-77
2023/09/06 09:46:08;;;;;;;7.85;2.40;;;24.90;99.90;;;;;;5002150;28;20022;-76
2023/09/06 09:48:34;;;;;;;4.80;2.40;;;25.00;99.90;;;;;;5001740;28;20026;-76
2023/09/06 09:51:04;;;;;;;3.58;2.00;;;25.00;99.90;;;;;;5002329;28;20018;-76
2023/09/06 09:53:32;;;;;;;5.78;2.30;;;25.20;99.90;;;;;;5000490;28;20145;-79
2023/09/06 09:56:04;;;;;;;2.90;2.10;;;25.20;99.90;;;;;;5000001;28;20026;-76
2023/09/06 09:58:35;;;;;;;4.13;2.30;;;25.40;99.90;;;;;;5000909;28;20030;-77
2023/09/06 10:01:05;;;;;;;4.65;2.20;;;25.50;99.90;;;;;;5001852;28;20054;-76
2023/09/06 10:03:35;;;;;;;4.93;2.00;;;25.60;99.90;;;;;;5002226;28;20053;-78
2023/09/06 10:06:03;;;;;;;2.60;2.15;;;25.70;99.90;;;;;;5001728;28;20022;-79
2023/09/06 10:08:32;;;;;;;6.30;2.22;;;25.90;99.90;;;;;;5001316;28;20019;-80
2023/09/06 10:10:57;;;;;;;6.53;2.50;;;26.00;99.90;;;;;;5000539;28;20026;-76
2023/09/06 10:13:26;;;;;;;5.65;2.30;;;26.10;99.90;;;;;;5000390;28;20025;-75
2023/09/06 10:15:53;;;;;;;8.85;2.42;;;26.20;99.90;;;;;;5001155;28;20025;-78
2023/09/06 10:18:18;;;;;;;6.70;2.05;;;26.20;99.90;;;;;;5000500;28;20521;-79
2023/09/06 10:20:46;;;;;;;4.00;1.95;;;26.30;99.90;;;;;;5001824;28;20026;-76
2023/09/06 10:23:12;;;;;;;6.32;2.00;;;26.40;99.90;;;;;;5001596;28;20035;-80
2023/09/06 10:25:47;;;;;;;6.30;2.35;;;26.40;99.90;;;;;;5000475;28;20026;-77
2023/09/06 10:28:14;;;;;;;4.65;2.38;;;26.50;99.90;;;;;;5001194;28;20030;-75
2023/09/06 10:30:45;;;;;;;2.97;1.95;;;26.60;99.90;;;;;;5000487;28;20040;-75
2023/09/06 10:33:33;;;;;;;3.35;1.88;;;26.80;99.90;;;;;;5000991;28;20109;-75
2023/09/06 10:36:05;;;;;;;5.60;2.10;;;26.80;99.90;;;;;;5003712;28;20046;-80
2023/09/06 10:38:30;;;;;;;6.22;2.35;;;26.90;99.90;;;;;;5005568;28;20034;-76
2023/09/06 10:40:56;;;;;;;3.45;2.00;;;27.00;99.90;;;;;;5004982;28;20033;-78
2023/09/06 10:43:27;;;;;;;7.75;2.10;;;27.00;99.90;;;;;;5004919;28;20077;-75
2023/09/06 10:46:08;;;;;;;4.00;2.00;;;27.20;99.90;;;;;;5004929;28;20027;-76
2023/09/06 10:48:34;;;;;;;4.53;1.92;;;27.30;99.90;;;;;;5003670;28;20030;-78
2023/09/06 10:51:11;;;;;;;3.03;2.13;;;27.30;99.90;;;;;;5004736;28;20471;-77
2023/09/06 10:53:37;;;;;;;4.53;2.30;;;27.50;99.90;;;;;;5003409;28;20030;-78
2023/09/06 10:56:05;;;;;;;3.28;2.20;;;27.50;99.90;;;;;;5002534;28;20061;-79
2023/09/06 10:58:33;;;;;;;7.75;2.20;;;27.60;99.90;;;;;;5004816;28;20042;-77
2023/09/06 11:01:25;;;;;;;5.53;1.90;;;27.60;99.90;;;;;;5004591;28;20022;-77
2023/09/06 11:03:51;;;;;;;6.22;2.00;;;27.70;99.90;;;;;;5003237;28;20443;-75
2023/09/06 11:06:18;;;;;;;5.97;2.13;;;27.80;99.90;;;;;;5004186;28;20443;-80
2023/09/06 11:08:46;;;;;;;5.18;2.20;;;27.80;99.90;;;;;;5003119;28;20034;-76
2023/09/06 11:11:14;;;;;;;4.07;1.98;;;27.80;99.90;;;;;;5003115;28;20032;-82
2023/09/06 11:13:41;;;;;;;7.05;2.10;;;27.90;99.90;;;;;;5003053;28;20041;-80
2023/09/06 11:16:12;;;;;;;4.60;2.20;;;27.90;99.90;;;;;;5002983;28;20054;-75
2023/09/06 11:18:50;;;;;;;3.28;1.85;;;28.00;99.90;;;;;;5004140;28;20053;-77
2023/09/06 11:21:24;;;;;;;6.05;2.20;;;28.00;99.90;;;;;;5004361;28;20042;-81
2023/09/06 11:23:52;;;;;;;2.67;1.88;;;28.10;99.90;;;;;;5002860;28;20030;-77
2023/09/06 11:26:21;;;;;;;8.07;2.38;;;28.20;99.90;;;;;;5002357;28;20018;-79
2023/09/06 11:28:47;;;;;;;4.95;2.10;;;28.30;99.90;;;;;;5002703;28;20068;-77
2023/09/06 11:31:39;;;;;;;7.95;1.90;;;28.30;99.90;;;;;;5002802;28;20179;-78
2023/09/06 11:34:05;;;;;;;4.78;1.77;;;28.40;99.90;;;;;;5000532;28;20054;-77
2023/09/06 11:36:33;;;;;;;5.13;1.75;;;28.60;99.90;;;;;;5002696;28;20033;-78
2023/09/06 11:39:18;;;;;;;5.20;1.85;;;28.70;99.90;;;;;;5003636;28;20022;-77
2023/09/06 11:41:44;;;;;;;12.98;1.98;;;28.90;99.90;;;;;;5004063;28;20058;-78
2023/09/06 11:44:14;;;;;;;6.20;2.22;;;29.10;99.90;;;;;;5001843;28;20026;-78
2023/09/06 11:46:43;;;;;;;6.43;1.75;;;29.20;99.90;;;;;;5001202;28;20411;-77
2023/09/06 11:49:09;;;;;;;3.60;1.70;;;29.40;99.90;;;;;;5003827;28;20188;-80
2023/09/06 11:51:35;;;;;;;3.47;1.92;;;29.60;99.90;;;;;;5002354;28;20022;-78
2023/09/06 11:54:01;;;;;;;2.97;1.80;;;29.60;99.90;;;;;;5003738;28;20038;-79
2023/09/06 11:56:36;;;;;;;3.65;1.77;;;29.60;99.90;;;;;;5001860;28;20391;-78
2023/09/06 11:59:06;;;;;;;3.92;1.50;;;29.70;99.90;;;;;;5002296;28;20105;-79
2023/09/06 12:01:39;;;;;;;6.25;1.50;;;29.90;99.90;;;;;;5003679;28;20034;-76
2023/09/06 12:04:10;;;;;;;6.00;1.70;;;30.10;99.90;;;;;;5003564;28;20019;-79
2023/09/06 12:06:39;;;;;;;2.47;1.20;;;30.30;99.90;;;;;;5002170;28;20029;-84
2023/09/06 12:09:12;;;;;;;4.18;1.10;;;30.50;99.90;;;;;;5001911;28;21071;-77
2023/09/06 12:11:38;;;;;;;5.35;1.20;;;30.60;99.90;;;;;;5002416;28;20046;-79
2023/09/06 12:14:04;;;;;;;1.42;1.00;;;30.70;99.90;;;;;;5003261;28;20018;-77
2023/09/06 12:16:31;;;;;;;2.55;1.30;;;30.80;99.90;;;;;;5003626;28;20029;-78
2023/09/06 12:18:56;;;;;;;3.85;1.08;;;30.90;99.90;;;;;;5003557;28;20821;-76
2023/09/06 12:21:22;;;;;;;2.83;0.90;;;30.90;99.90;;;;;;5002882;28;20030;-77
2023/09/06 12:23:48;;;;;;;2.85;1.10;;;30.90;99.90;;;;;;5003247;28;20052;-78
2023/09/06 12:26:16;;;;;;;2.88;1.02;;;31.00;99.90;;;;;;5003170;28;20026;-77
2023/09/06 12:28:42;;;;;;;3.22;1.00;;;31.00;99.90;;;;;;5002878;28;20024;-80
2023/09/06 12:31:07;;;;;;;6.10;0.98;;;31.10;99.90;;;;;;5003189;28;20033;-78
2023/09/06 12:33:33;;;;;;;4.18;1.00;;;31.20;99.90;;;;;;5002758;28;20049;-76
2023/09/06 12:36:00;;;;;;;1.98;0.90;;;31.30;99.90;;;;;;5001777;28;20101;-74
2023/09/06 12:38:31;;;;;;;2.75;0.80;;;31.30;99.90;;;;;;5002746;28;20025;-77
2023/09/06 12:40:58;;;;;;;1.67;0.70;;;31.30;99.90;;;;;;5001253;28;20088;-77
2023/09/06 12:43:26;;;;;;;1.63;0.80;;;31.30;99.90;;;;;;5002934;28;20022;-81
2023/09/06 12:45:53;;;;;;;5.55;1.20;;;31.40;99.90;;;;;;5002787;28;20109;-76
2023/09/06 12:48:20;;;;;;;3.90;0.88;;;31.50;99.90;;;;;;5000710;28;20019;-77
2023/09/06 12:50:45;;;;;;;1.75;0.75;;;31.50;99.90;;;;;;5001355;28;20368;-77
2023/09/06 12:53:11;;;;;;;2.80;0.85;;;31.50;99.90;;;;;;5001384;28;20033;-77
2023/09/06 12:55:37;;;;;;;2.15;0.70;;;31.60;99.90;;;;;;5002253;28;20383;-76
2023/09/06 12:58:04;;;;;;;1.60;0.85;;;31.70;99.90;;;;;;5000894;28;20026;-78
2023/09/06 13:00:30;;;;;;;1.25;1.00;;;31.80;99.90;;;;;;5003183;28;20038;-75
2023/09/06 13:02:55;;;;;;;3.67;0.80;;;31.90;99.90;;;;;;5001096;28;20049;-78
2023/09/06 13:05:21;;;;;;;2.28;0.65;;;31.90;99.90;;;;;;5001390;28;20102;-78
2023/09/06 13:07:47;;;;;;;1.70;0.80;;;32.00;99.90;;;;;;5000626;28;20025;-76
2023/09/06 13:10:12;;;;;;;2.08;0.75;;;32.10;99.90;;;;;;5000848;28;20113;-78
2023/09/06 13:12:38;;;;;;;1.58;0.90;;;32.20;99.90;;;;;;5001468;28;20027;-79
2023/09/06 13:15:05;;;;;;;1.02;0.70;;;32.40;99.90;;;;;;5001359;28;20026;-76
2023/09/06 13:17:31;;;;;;;1.17;0.60;;;32.40;99.90;;;;;;5002361;28;20030;-80
2023/09/06 13:19:56;;;;;;;1.23;0.70;;;32.30;99.90;;;;;;5001428;28;20030;-78
2023/09/06 13:22:22;;;;;;;1.17;0.73;;;32.30;99.90;;;;;;5002213;28;20776;-75
2023/09/06 13:24:48;;;;;;;3.33;0.80;;;32.20;99.90;;;;;;5000758;28;20034;-79
2023/09/06 13:27:14;;;;;;;1.73;0.77;;;32.30;99.90;;;;;;5001155;28;20022;-76